Limoeiro de Anadia, Brazil
Current Conditions -  °F | °C
As of 7:00 AM on Saturday 20 Dec 2014 (Local Time) from SBMO Reporting Station
Scattered Clouds Scattered Clouds  
Wind Chill: 75°   Ceiling: Unl
Heat Index: 75°   Visibility: 6mi
Dew Point: 73°   Wind: 6mph
Humidity: 94%   Direction: 50°NE
Pressure: 29.97"   Gusts: NA
Location:  9.74°S, 36.5°W
Report Text: SBMO 201000Z 05005KT 9999 FEW010 SCT017 24/23 Q1015
Loading
Personal Weather Stations






























Interactive Weather Map New forecast layout! Learn more

10-Day Weather Forecast

Advertisements
Track Severe Weather on mobile